sensor_id;sensor_type;location;lat;lon;timestamp;P1;durP1;ratioP1;P2;durP2;ratioP2
75456;SDS011;64036;48.266;14.192;2023-12-29T00:00:56;19.10;;;8.80;;
75456;SDS011;64036;48.266;14.192;2023-12-29T00:03:22;16.30;;;8.20;;
75456;SDS011;64036;48.266;14.192;2023-12-29T00:05:47;14.70;;;7.20;;
75456;SDS011;64036;48.266;14.192;2023-12-29T00:08:13;17.10;;;8.10;;
75456;SDS011;64036;48.266;14.192;2023-12-29T00:10:48;16.50;;;8.00;;
75456;SDS011;64036;48.266;14.192;2023-12-29T00:13:13;15.10;;;8.10;;
75456;SDS011;64036;48.266;14.192;2023-12-29T00:15:49;18.10;;;9.20;;
75456;SDS011;64036;48.266;14.192;2023-12-29T00:18:44;17.60;;;9.80;;
75456;SDS011;64036;48.266;14.192;2023-12-29T00:21:21;19.00;;;9.30;;
75456;SDS011;64036;48.266;14.192;2023-12-29T00:23:47;22.30;;;9.80;;
75456;SDS011;64036;48.266;14.192;2023-12-29T00:26:24;22.90;;;10.00;;
75456;SDS011;64036;48.266;14.192;2023-12-29T00:29:06;20.40;;;10.10;;
75456;SDS011;64036;48.266;14.192;2023-12-29T00:31:40;21.80;;;10.90;;
75456;SDS011;64036;48.266;14.192;2023-12-29T00:34:15;20.50;;;10.50;;
75456;SDS011;64036;48.266;14.192;2023-12-29T00:36:49;21.10;;;10.70;;
75456;SDS011;64036;48.266;14.192;2023-12-29T00:39:35;22.70;;;10.20;;
75456;SDS011;64036;48.266;14.192;2023-12-29T00:42:07;19.80;;;9.20;;
75456;SDS011;64036;48.266;14.192;2023-12-29T00:44:42;18.30;;;9.00;;
75456;SDS011;64036;48.266;14.192;2023-12-29T00:47:11;21.00;;;9.70;;
75456;SDS011;64036;48.266;14.192;2023-12-29T00:49:46;19.60;;;10.20;;
75456;SDS011;64036;48.266;14.192;2023-12-29T00:52:23;20.40;;;10.70;;
75456;SDS011;64036;48.266;14.192;2023-12-29T00:54:49;23.20;;;10.70;;
75456;SDS011;64036;48.266;14.192;2023-12-29T00:57:18;23.10;;;11.00;;
75456;SDS011;64036;48.266;14.192;2023-12-29T00:59:47;27.60;;;13.80;;
75456;SDS011;64036;48.266;14.192;2023-12-29T01:02:18;28.10;;;12.90;;
75456;SDS011;64036;48.266;14.192;2023-12-29T01:04:44;27.40;;;13.20;;
75456;SDS011;64036;48.266;14.192;2023-12-29T01:07:09;26.70;;;12.20;;
75456;SDS011;64036;48.266;14.192;2023-12-29T01:10:02;27.50;;;12.40;;
75456;SDS011;64036;48.266;14.192;2023-12-29T01:12:48;23.20;;;11.30;;
75456;SDS011;64036;48.266;14.192;2023-12-29T01:15:26;27.20;;;13.80;;
75456;SDS011;64036;48.266;14.192;2023-12-29T01:17:53;31.90;;;13.10;;
75456;SDS011;64036;48.266;14.192;2023-12-29T01:20:27;31.00;;;14.80;;
75456;SDS011;64036;48.266;14.192;2023-12-29T01:23:00;33.20;;;15.40;;
75456;SDS011;64036;48.266;14.192;2023-12-29T01:25:29;33.80;;;14.40;;
75456;SDS011;64036;48.266;14.192;2023-12-29T01:27:58;31.60;;;14.80;;
75456;SDS011;64036;48.266;14.192;2023-12-29T01:30:29;33.20;;;15.10;;
75456;SDS011;64036;48.266;14.192;2023-12-29T01:32:55;22.10;;;11.30;;
75456;SDS011;64036;48.266;14.192;2023-12-29T01:35:20;32.00;;;13.80;;
75456;SDS011;64036;48.266;14.192;2023-12-29T01:37:54;20.20;;;11.00;;
75456;SDS011;64036;48.266;14.192;2023-12-29T01:40:47;18.90;;;9.50;;
75456;SDS011;64036;48.266;14.192;2023-12-29T01:43:13;17.90;;;9.10;;
75456;SDS011;64036;48.266;14.192;2023-12-29T01:46:04;20.10;;;11.00;;
75456;SDS011;64036;48.266;14.192;2023-12-29T01:48:40;15.90;;;7.50;;
75456;SDS011;64036;48.266;14.192;2023-12-29T01:51:32;18.60;;;9.50;;
75456;SDS011;64036;48.266;14.192;2023-12-29T01:54:19;15.20;;;8.70;;
75456;SDS011;64036;48.266;14.192;2023-12-29T01:56:57;20.30;;;9.60;;
75456;SDS011;64036;48.266;14.192;2023-12-29T01:59:39;21.50;;;10.80;;
75456;SDS011;64036;48.266;14.192;2023-12-29T02:02:31;21.60;;;10.30;;
75456;SDS011;64036;48.266;14.192;2023-12-29T02:05:21;17.80;;;9.70;;
75456;SDS011;64036;48.266;14.192;2023-12-29T02:08:23;21.20;;;10.50;;
75456;SDS011;64036;48.266;14.192;2023-12-29T02:10:55;19.00;;;11.00;;
75456;SDS011;64036;48.266;14.192;2023-12-29T02:13:31;19.90;;;10.40;;
75456;SDS011;64036;48.266;14.192;2023-12-29T02:16:27;23.70;;;11.90;;
75456;SDS011;64036;48.266;14.192;2023-12-29T02:22:37;20.00;;;10.50;;
75456;SDS011;64036;48.266;14.192;2023-12-29T02:25:21;21.30;;;11.40;;
75456;SDS011;64036;48.266;14.192;2023-12-29T02:28:04;20.80;;;11.10;;
75456;SDS011;64036;48.266;14.192;2023-12-29T02:30:43;20.00;;;9.70;;
75456;SDS011;64036;48.266;14.192;2023-12-29T02:33:16;20.40;;;11.10;;
75456;SDS011;64036;48.266;14.192;2023-12-29T02:35:55;19.50;;;10.20;;
75456;SDS011;64036;48.266;14.192;2023-12-29T02:38:34;18.30;;;9.30;;
75456;SDS011;64036;48.266;14.192;2023-12-29T02:41:06;20.60;;;10.40;;
75456;SDS011;64036;48.266;14.192;2023-12-29T02:46:00;18.60;;;9.00;;
75456;SDS011;64036;48.266;14.192;2023-12-29T02:48:29;20.00;;;10.30;;
75456;SDS011;64036;48.266;14.192;2023-12-29T02:50:55;21.20;;;10.20;;
75456;SDS011;64036;48.266;14.192;2023-12-29T02:53:21;20.20;;;10.80;;
75456;SDS011;64036;48.266;14.192;2023-12-29T02:55:47;22.00;;;10.30;;
75456;SDS011;64036;48.266;14.192;2023-12-29T02:58:13;21.20;;;11.20;;
75456;SDS011;64036;48.266;14.192;2023-12-29T03:00:39;22.40;;;11.70;;
75456;SDS011;64036;48.266;14.192;2023-12-29T03:03:04;17.50;;;8.40;;
75456;SDS011;64036;48.266;14.192;2023-12-29T03:05:33;20.30;;;10.60;;
75456;SDS011;64036;48.266;14.192;2023-12-29T03:08:04;23.90;;;11.00;;
75456;SDS011;64036;48.266;14.192;2023-12-29T03:10:40;20.70;;;10.60;;
75456;SDS011;64036;48.266;14.192;2023-12-29T03:13:37;22.70;;;10.60;;
75456;SDS011;64036;48.266;14.192;2023-12-29T03:16:08;20.80;;;10.70;;
75456;SDS011;64036;48.266;14.192;2023-12-29T03:18:44;18.90;;;10.00;;
75456;SDS011;64036;48.266;14.192;2023-12-29T03:21:29;20.00;;;10.00;;
75456;SDS011;64036;48.266;14.192;2023-12-29T03:24:00;19.50;;;9.10;;
75456;SDS011;64036;48.266;14.192;2023-12-29T03:29:51;16.60;;;8.80;;
75456;SDS011;64036;48.266;14.192;2023-12-29T03:32:25;19.60;;;8.60;;
75456;SDS011;64036;48.266;14.192;2023-12-29T03:34:59;12.30;;;6.20;;
75456;SDS011;64036;48.266;14.192;2023-12-29T03:37:41;15.60;;;8.30;;
75456;SDS011;64036;48.266;14.192;2023-12-29T03:40:12;16.30;;;9.00;;
75456;SDS011;64036;48.266;14.192;2023-12-29T03:42:52;19.20;;;9.00;;
75456;SDS011;64036;48.266;14.192;2023-12-29T03:45:21;16.50;;;8.60;;
75456;SDS011;64036;48.266;14.192;2023-12-29T03:47:47;17.40;;;8.30;;
75456;SDS011;64036;48.266;14.192;2023-12-29T03:50:13;14.60;;;7.80;;
75456;SDS011;64036;48.266;14.192;2023-12-29T03:52:38;18.00;;;8.00;;
75456;SDS011;64036;48.266;14.192;2023-12-29T03:55:13;16.60;;;8.00;;
75456;SDS011;64036;48.266;14.192;2023-12-29T03:57:39;17.00;;;8.10;;
75456;SDS011;64036;48.266;14.192;2023-12-29T04:00:06;12.00;;;6.10;;
75456;SDS011;64036;48.266;14.192;2023-12-29T04:02:32;18.00;;;7.70;;
75456;SDS011;64036;48.266;14.192;2023-12-29T04:04:58;15.20;;;7.70;;
75456;SDS011;64036;48.266;14.192;2023-12-29T04:07:30;17.40;;;8.00;;
75456;SDS011;64036;48.266;14.192;2023-12-29T04:09:55;14.60;;;7.70;;
75456;SDS011;64036;48.266;14.192;2023-12-29T04:12:21;15.20;;;8.00;;
75456;SDS011;64036;48.266;14.192;2023-12-29T04:14:47;17.50;;;8.70;;
75456;SDS011;64036;48.266;14.192;2023-12-29T04:17:13;17.20;;;8.10;;
75456;SDS011;64036;48.266;14.192;2023-12-29T04:19:50;17.20;;;8.20;;
75456;SDS011;64036;48.266;14.192;2023-12-29T04:22:27;17.70;;;8.60;;
75456;SDS011;64036;48.266;14.192;2023-12-29T04:24:53;19.90;;;10.50;;
75456;SDS011;64036;48.266;14.192;2023-12-29T04:27:29;15.30;;;7.10;;
75456;SDS011;64036;48.266;14.192;2023-12-29T04:29:54;19.30;;;9.10;;
75456;SDS011;64036;48.266;14.192;2023-12-29T04:32:20;18.70;;;8.70;;
75456;SDS011;64036;48.266;14.192;2023-12-29T04:34:46;20.90;;;10.60;;
75456;SDS011;64036;48.266;14.192;2023-12-29T04:37:21;16.80;;;9.10;;
75456;SDS011;64036;48.266;14.192;2023-12-29T04:39:47;21.20;;;11.70;;
75456;SDS011;64036;48.266;14.192;2023-12-29T04:42:12;19.70;;;9.30;;
75456;SDS011;64036;48.266;14.192;2023-12-29T04:44:41;18.60;;;9.30;;
75456;SDS011;64036;48.266;14.192;2023-12-29T04:47:07;18.00;;;9.80;;
75456;SDS011;64036;48.266;14.192;2023-12-29T04:49:42;19.90;;;10.30;;
75456;SDS011;64036;48.266;14.192;2023-12-29T04:52:08;18.10;;;9.70;;
75456;SDS011;64036;48.266;14.192;2023-12-29T04:54:36;21.10;;;10.10;;
75456;SDS011;64036;48.266;14.192;2023-12-29T04:57:13;21.10;;;10.70;;
75456;SDS011;64036;48.266;14.192;2023-12-29T04:59:39;21.10;;;10.80;;
75456;SDS011;64036;48.266;14.192;2023-12-29T05:02:14;22.40;;;10.80;;
75456;SDS011;64036;48.266;14.192;2023-12-29T05:04:39;17.40;;;10.10;;
75456;SDS011;64036;48.266;14.192;2023-12-29T05:07:09;18.50;;;10.50;;
75456;SDS011;64036;48.266;14.192;2023-12-29T05:09:35;18.80;;;10.20;;
75456;SDS011;64036;48.266;14.192;2023-12-29T05:12:02;21.30;;;10.90;;
75456;SDS011;64036;48.266;14.192;2023-12-29T05:14:30;25.60;;;12.20;;
75456;SDS011;64036;48.266;14.192;2023-12-29T05:16:56;21.00;;;11.60;;
75456;SDS011;64036;48.266;14.192;2023-12-29T05:19:29;24.70;;;12.90;;
75456;SDS011;64036;48.266;14.192;2023-12-29T05:21:55;20.90;;;10.90;;
75456;SDS011;64036;48.266;14.192;2023-12-29T05:24:26;18.80;;;9.90;;
75456;SDS011;64036;48.266;14.192;2023-12-29T05:27:02;18.80;;;10.50;;
75456;SDS011;64036;48.266;14.192;2023-12-29T05:29:40;20.50;;;10.80;;
75456;SDS011;64036;48.266;14.192;2023-12-29T05:32:22;24.60;;;11.10;;
75456;SDS011;64036;48.266;14.192;2023-12-29T05:34:58;21.40;;;11.30;;
75456;SDS011;64036;48.266;14.192;2023-12-29T05:37:35;19.20;;;10.60;;
75456;SDS011;64036;48.266;14.192;2023-12-29T05:40:01;24.50;;;12.70;;
75456;SDS011;64036;48.266;14.192;2023-12-29T05:42:55;22.30;;;11.70;;
75456;SDS011;64036;48.266;14.192;2023-12-29T05:45:25;16.70;;;9.30;;
75456;SDS011;64036;48.266;14.192;2023-12-29T05:47:51;21.50;;;9.20;;
75456;SDS011;64036;48.266;14.192;2023-12-29T05:50:24;17.80;;;9.70;;
75456;SDS011;64036;48.266;14.192;2023-12-29T05:52:50;13.90;;;8.00;;
75456;SDS011;64036;48.266;14.192;2023-12-29T05:55:19;15.30;;;8.30;;
75456;SDS011;64036;48.266;14.192;2023-12-29T05:57:45;18.40;;;9.00;;
75456;SDS011;64036;48.266;14.192;2023-12-29T06:00:36;15.00;;;8.20;;
75456;SDS011;64036;48.266;14.192;2023-12-29T06:03:06;14.00;;;7.10;;
75456;SDS011;64036;48.266;14.192;2023-12-29T06:05:32;16.20;;;8.10;;
75456;SDS011;64036;48.266;14.192;2023-12-29T06:07:58;15.40;;;7.20;;
75456;SDS011;64036;48.266;14.192;2023-12-29T06:10:30;14.40;;;8.40;;
75456;SDS011;64036;48.266;14.192;2023-12-29T06:12:56;15.80;;;8.60;;
75456;SDS011;64036;48.266;14.192;2023-12-29T06:15:30;17.10;;;8.70;;
75456;SDS011;64036;48.266;14.192;2023-12-29T06:18:09;17.10;;;8.90;;
75456;SDS011;64036;48.266;14.192;2023-12-29T06:20:43;19.70;;;9.40;;
75456;SDS011;64036;48.266;14.192;2023-12-29T06:23:08;18.90;;;9.80;;
75456;SDS011;64036;48.266;14.192;2023-12-29T06:25:34;16.70;;;8.70;;
75456;SDS011;64036;48.266;14.192;2023-12-29T06:28:00;19.20;;;9.10;;
75456;SDS011;64036;48.266;14.192;2023-12-29T06:30:29;18.60;;;8.90;;
75456;SDS011;64036;48.266;14.192;2023-12-29T06:33:04;24.30;;;11.10;;
75456;SDS011;64036;48.266;14.192;2023-12-29T06:35:37;18.20;;;9.70;;
75456;SDS011;64036;48.266;14.192;2023-12-29T06:38:19;19.00;;;9.80;;
75456;SDS011;64036;48.266;14.192;2023-12-29T06:41:03;17.70;;;9.30;;
75456;SDS011;64036;48.266;14.192;2023-12-29T06:43:47;19.70;;;10.00;;
75456;SDS011;64036;48.266;14.192;2023-12-29T06:46:29;20.30;;;10.10;;
75456;SDS011;64036;48.266;14.192;2023-12-29T06:49:07;17.00;;;8.60;;
75456;SDS011;64036;48.266;14.192;2023-12-29T06:51:37;20.50;;;10.20;;
75456;SDS011;64036;48.266;14.192;2023-12-29T06:54:14;13.10;;;7.70;;
75456;SDS011;64036;48.266;14.192;2023-12-29T06:56:40;15.00;;;8.00;;
75456;SDS011;64036;48.266;14.192;2023-12-29T06:59:09;16.60;;;9.00;;
75456;SDS011;64036;48.266;14.192;2023-12-29T07:01:40;16.20;;;8.70;;
75456;SDS011;64036;48.266;14.192;2023-12-29T07:04:06;15.40;;;7.70;;
75456;SDS011;64036;48.266;14.192;2023-12-29T07:06:53;14.00;;;7.90;;
75456;SDS011;64036;48.266;14.192;2023-12-29T07:09:19;18.40;;;10.00;;
75456;SDS011;64036;48.266;14.192;2023-12-29T07:11:59;20.40;;;9.60;;
75456;SDS011;64036;48.266;14.192;2023-12-29T07:14:30;19.00;;;10.50;;
75456;SDS011;64036;48.266;14.192;2023-12-29T07:17:00;18.40;;;9.10;;
75456;SDS011;64036;48.266;14.192;2023-12-29T07:19:26;17.90;;;9.90;;
75456;SDS011;64036;48.266;14.192;2023-12-29T07:21:59;16.10;;;9.30;;
75456;SDS011;64036;48.266;14.192;2023-12-29T07:24:25;17.80;;;10.10;;
75456;SDS011;64036;48.266;14.192;2023-12-29T07:26:56;18.70;;;11.00;;
75456;SDS011;64036;48.266;14.192;2023-12-29T07:29:22;17.20;;;9.50;;
75456;SDS011;64036;48.266;14.192;2023-12-29T07:31:48;18.80;;;10.40;;
75456;SDS011;64036;48.266;14.192;2023-12-29T07:34:17;14.30;;;8.00;;
75456;SDS011;64036;48.266;14.192;2023-12-29T07:36:43;19.40;;;11.00;;
75456;SDS011;64036;48.266;14.192;2023-12-29T07:39:12;22.00;;;11.60;;
75456;SDS011;64036;48.266;14.192;2023-12-29T07:41:42;19.40;;;9.70;;
75456;SDS011;64036;48.266;14.192;2023-12-29T07:44:13;19.00;;;10.60;;
75456;SDS011;64036;48.266;14.192;2023-12-29T07:46:40;24.20;;;11.10;;
75456;SDS011;64036;48.266;14.192;2023-12-29T07:49:05;17.10;;;9.70;;
75456;SDS011;64036;48.266;14.192;2023-12-29T07:51:31;19.50;;;9.90;;
75456;SDS011;64036;48.266;14.192;2023-12-29T07:53:57;15.70;;;9.00;;
75456;SDS011;64036;48.266;14.192;2023-12-29T07:56:23;20.30;;;10.30;;
75456;SDS011;64036;48.266;14.192;2023-12-29T07:58:49;19.50;;;9.80;;
75456;SDS011;64036;48.266;14.192;2023-12-29T08:01:14;18.80;;;10.50;;
75456;SDS011;64036;48.266;14.192;2023-12-29T08:03:40;17.00;;;9.80;;
75456;SDS011;64036;48.266;14.192;2023-12-29T08:06:06;20.00;;;10.20;;
75456;SDS011;64036;48.266;14.192;2023-12-29T08:08:32;21.60;;;12.20;;
75456;SDS011;64036;48.266;14.192;2023-12-29T08:10:57;18.60;;;10.60;;
75456;SDS011;64036;48.266;14.192;2023-12-29T08:13:26;21.80;;;11.20;;
75456;SDS011;64036;48.266;14.192;2023-12-29T08:15:58;17.10;;;9.50;;
75456;SDS011;64036;48.266;14.192;2023-12-29T08:18:24;22.90;;;11.60;;
75456;SDS011;64036;48.266;14.192;2023-12-29T08:20:49;20.30;;;11.60;;
75456;SDS011;64036;48.266;14.192;2023-12-29T08:23:15;21.20;;;10.80;;
75456;SDS011;64036;48.266;14.192;2023-12-29T08:25:41;19.70;;;10.30;;
75456;SDS011;64036;48.266;14.192;2023-12-29T08:28:07;20.90;;;11.40;;
75456;SDS011;64036;48.266;14.192;2023-12-29T08:30:34;19.00;;;10.30;;
75456;SDS011;64036;48.266;14.192;2023-12-29T08:33:04;16.40;;;9.10;;
75456;SDS011;64036;48.266;14.192;2023-12-29T08:35:30;22.70;;;11.00;;
75456;SDS011;64036;48.266;14.192;2023-12-29T08:37:55;18.00;;;10.00;;
75456;SDS011;64036;48.266;14.192;2023-12-29T08:40:21;21.90;;;11.80;;
75456;SDS011;64036;48.266;14.192;2023-12-29T08:42:47;17.60;;;10.30;;
75456;SDS011;64036;48.266;14.192;2023-12-29T08:45:12;20.90;;;10.60;;
75456;SDS011;64036;48.266;14.192;2023-12-29T08:47:38;17.90;;;9.60;;
75456;SDS011;64036;48.266;14.192;2023-12-29T08:50:04;17.90;;;9.70;;
75456;SDS011;64036;48.266;14.192;2023-12-29T08:52:30;18.80;;;9.80;;
75456;SDS011;64036;48.266;14.192;2023-12-29T08:54:56;22.30;;;10.40;;
75456;SDS011;64036;48.266;14.192;2023-12-29T08:57:21;17.70;;;10.00;;
75456;SDS011;64036;48.266;14.192;2023-12-29T08:59:48;19.80;;;11.40;;
75456;SDS011;64036;48.266;14.192;2023-12-29T09:02:13;15.50;;;9.00;;
75456;SDS011;64036;48.266;14.192;2023-12-29T09:04:39;18.90;;;10.10;;
75456;SDS011;64036;48.266;14.192;2023-12-29T09:07:05;19.90;;;10.60;;
75456;SDS011;64036;48.266;14.192;2023-12-29T09:09:31;17.90;;;8.80;;
75456;SDS011;64036;48.266;14.192;2023-12-29T09:11:56;12.20;;;7.60;;
75456;SDS011;64036;48.266;14.192;2023-12-29T09:14:22;18.90;;;10.80;;
75456;SDS011;64036;48.266;14.192;2023-12-29T09:16:48;21.30;;;10.90;;
75456;SDS011;64036;48.266;14.192;2023-12-29T09:19:14;22.50;;;11.80;;
75456;SDS011;64036;48.266;14.192;2023-12-29T09:21:39;21.40;;;12.40;;
75456;SDS011;64036;48.266;14.192;2023-12-29T09:24:05;26.10;;;14.80;;
75456;SDS011;64036;48.266;14.192;2023-12-29T09:26:31;26.70;;;14.00;;
75456;SDS011;64036;48.266;14.192;2023-12-29T09:28:57;24.30;;;12.60;;
75456;SDS011;64036;48.266;14.192;2023-12-29T09:31:22;24.00;;;12.40;;
75456;SDS011;64036;48.266;14.192;2023-12-29T09:33:48;22.60;;;11.70;;
75456;SDS011;64036;48.266;14.192;2023-12-29T09:36:14;25.10;;;12.60;;
75456;SDS011;64036;48.266;14.192;2023-12-29T09:38:46;21.20;;;11.20;;
75456;SDS011;64036;48.266;14.192;2023-12-29T09:41:14;22.00;;;12.50;;
75456;SDS011;64036;48.266;14.192;2023-12-29T09:43:41;21.00;;;11.70;;
75456;SDS011;64036;48.266;14.192;2023-12-29T09:46:10;21.90;;;12.00;;
75456;SDS011;64036;48.266;14.192;2023-12-29T09:48:37;22.10;;;11.90;;
75456;SDS011;64036;48.266;14.192;2023-12-29T09:51:08;22.10;;;12.90;;
75456;SDS011;64036;48.266;14.192;2023-12-29T09:53:36;21.30;;;11.80;;
75456;SDS011;64036;48.266;14.192;2023-12-29T09:56:03;23.20;;;12.50;;
75456;SDS011;64036;48.266;14.192;2023-12-29T09:58:33;21.50;;;12.10;;
75456;SDS011;64036;48.266;14.192;2023-12-29T10:01:08;22.30;;;12.80;;
75456;SDS011;64036;48.266;14.192;2023-12-29T10:03:34;21.00;;;11.40;;
75456;SDS011;64036;48.266;14.192;2023-12-29T10:06:00;21.30;;;12.20;;
75456;SDS011;64036;48.266;14.192;2023-12-29T10:08:31;20.10;;;11.60;;
75456;SDS011;64036;48.266;14.192;2023-12-29T10:11:00;19.60;;;11.50;;
75456;SDS011;64036;48.266;14.192;2023-12-29T10:13:27;17.90;;;10.70;;
75456;SDS011;64036;48.266;14.192;2023-12-29T10:16:18;18.80;;;11.00;;
75456;SDS011;64036;48.266;14.192;2023-12-29T10:21:49;20.60;;;10.10;;
75456;SDS011;64036;48.266;14.192;2023-12-29T10:24:21;21.80;;;12.20;;
75456;SDS011;64036;48.266;14.192;2023-12-29T10:26:48;22.40;;;13.30;;
75456;SDS011;64036;48.266;14.192;2023-12-29T10:29:15;20.20;;;12.40;;
75456;SDS011;64036;48.266;14.192;2023-12-29T10:31:44;20.50;;;11.60;;
75456;SDS011;64036;48.266;14.192;2023-12-29T10:34:20;19.70;;;10.40;;
75456;SDS011;64036;48.266;14.192;2023-12-29T10:36:56;20.80;;;11.00;;
75456;SDS011;64036;48.266;14.192;2023-12-29T10:39:22;19.60;;;10.70;;
75456;SDS011;64036;48.266;14.192;2023-12-29T10:41:49;19.10;;;10.20;;
75456;SDS011;64036;48.266;14.192;2023-12-29T10:44:19;18.10;;;11.00;;
75456;SDS011;64036;48.266;14.192;2023-12-29T10:46:45;19.60;;;10.60;;
75456;SDS011;64036;48.266;14.192;2023-12-29T10:49:12;19.50;;;10.80;;
75456;SDS011;64036;48.266;14.192;2023-12-29T10:51:39;25.20;;;10.80;;
75456;SDS011;64036;48.266;14.192;2023-12-29T10:54:06;17.40;;;9.40;;
75456;SDS011;64036;48.266;14.192;2023-12-29T10:56:32;17.30;;;9.20;;
75456;SDS011;64036;48.266;14.192;2023-12-29T11:01:25;18.60;;;10.00;;
75456;SDS011;64036;48.266;14.192;2023-12-29T11:04:23;21.70;;;10.30;;
75456;SDS011;64036;48.266;14.192;2023-12-29T11:06:49;16.40;;;8.60;;
75456;SDS011;64036;48.266;14.192;2023-12-29T11:09:29;15.50;;;8.80;;
75456;SDS011;64036;48.266;14.192;2023-12-29T11:12:01;20.80;;;12.30;;
75456;SDS011;64036;48.266;14.192;2023-12-29T11:14:30;23.40;;;13.60;;
75456;SDS011;64036;48.266;14.192;2023-12-29T11:16:57;26.40;;;14.40;;
75456;SDS011;64036;48.266;14.192;2023-12-29T11:19:27;29.10;;;14.40;;
75456;SDS011;64036;48.266;14.192;2023-12-29T11:21:55;24.40;;;14.20;;
75456;SDS011;64036;48.266;14.192;2023-12-29T11:24:21;24.30;;;13.60;;
75456;SDS011;64036;48.266;14.192;2023-12-29T11:26:51;24.10;;;13.40;;
75456;SDS011;64036;48.266;14.192;2023-12-29T11:29:18;21.10;;;12.60;;
75456;SDS011;64036;48.266;14.192;2023-12-29T11:31:45;23.90;;;13.50;;
75456;SDS011;64036;48.266;14.192;2023-12-29T11:37:02;24.50;;;14.90;;
75456;SDS011;64036;48.266;14.192;2023-12-29T11:39:53;24.30;;;14.20;;
75456;SDS011;64036;48.266;14.192;2023-12-29T11:42:51;28.70;;;15.90;;
75456;SDS011;64036;48.266;14.192;2023-12-29T11:45:29;25.30;;;14.70;;
75456;SDS011;64036;48.266;14.192;2023-12-29T11:47:59;26.80;;;14.70;;
75456;SDS011;64036;48.266;14.192;2023-12-29T11:50:48;25.80;;;15.00;;
75456;SDS011;64036;48.266;14.192;2023-12-29T11:53:31;23.60;;;11.90;;
75456;SDS011;64036;48.266;14.192;2023-12-29T11:55:58;30.30;;;17.40;;
75456;SDS011;64036;48.266;14.192;2023-12-29T11:58:25;30.70;;;18.40;;
75456;SDS011;64036;48.266;14.192;2023-12-29T12:00:56;33.60;;;17.50;;
75456;SDS011;64036;48.266;14.192;2023-12-29T12:03:26;32.50;;;18.60;;
75456;SDS011;64036;48.266;14.192;2023-12-29T12:05:54;23.10;;;13.10;;
75456;SDS011;64036;48.266;14.192;2023-12-29T12:08:37;32.50;;;18.70;;
75456;SDS011;64036;48.266;14.192;2023-12-29T12:11:41;28.80;;;16.90;;
75456;SDS011;64036;48.266;14.192;2023-12-29T12:14:08;26.70;;;15.30;;
75456;SDS011;64036;48.266;14.192;2023-12-29T12:19:13;24.70;;;14.70;;
75456;SDS011;64036;48.266;14.192;2023-12-29T12:21:40;28.10;;;15.40;;
75456;SDS011;64036;48.266;14.192;2023-12-29T12:24:06;29.40;;;16.70;;
75456;SDS011;64036;48.266;14.192;2023-12-29T12:26:33;25.60;;;15.30;;
75456;SDS011;64036;48.266;14.192;2023-12-29T12:29:03;25.90;;;14.30;;
75456;SDS011;64036;48.266;14.192;2023-12-29T12:31:29;29.00;;;16.70;;
75456;SDS011;64036;48.266;14.192;2023-12-29T12:34:02;28.20;;;15.40;;
75456;SDS011;64036;48.266;14.192;2023-12-29T12:36:31;30.00;;;16.40;;
75456;SDS011;64036;48.266;14.192;2023-12-29T12:38:57;24.80;;;14.90;;
75456;SDS011;64036;48.266;14.192;2023-12-29T12:41:25;29.70;;;15.50;;
75456;SDS011;64036;48.266;14.192;2023-12-29T12:44:12;22.90;;;13.70;;
75456;SDS011;64036;48.266;14.192;2023-12-29T12:46:50;31.90;;;17.40;;
75456;SDS011;64036;48.266;14.192;2023-12-29T12:49:20;30.40;;;16.70;;
75456;SDS011;64036;48.266;14.192;2023-12-29T12:51:46;27.20;;;15.80;;
75456;SDS011;64036;48.266;14.192;2023-12-29T12:54:13;27.60;;;15.30;;
75456;SDS011;64036;48.266;14.192;2023-12-29T12:56:43;25.30;;;14.80;;
75456;SDS011;64036;48.266;14.192;2023-12-29T12:59:10;23.90;;;14.50;;
75456;SDS011;64036;48.266;14.192;2023-12-29T13:01:36;27.90;;;16.20;;
75456;SDS011;64036;48.266;14.192;2023-12-29T13:04:04;26.80;;;16.20;;
75456;SDS011;64036;48.266;14.192;2023-12-29T13:06:31;29.80;;;16.90;;
75456;SDS011;64036;48.266;14.192;2023-12-29T13:08:58;25.60;;;15.80;;
75456;SDS011;64036;48.266;14.192;2023-12-29T13:11:25;25.80;;;15.10;;
75456;SDS011;64036;48.266;14.192;2023-12-29T13:13:51;28.80;;;16.90;;
75456;SDS011;64036;48.266;14.192;2023-12-29T13:16:34;26.60;;;16.00;;
75456;SDS011;64036;48.266;14.192;2023-12-29T13:19:20;27.80;;;16.60;;
75456;SDS011;64036;48.266;14.192;2023-12-29T13:21:51;25.90;;;14.60;;
75456;SDS011;64036;48.266;14.192;2023-12-29T13:24:23;31.70;;;16.60;;
75456;SDS011;64036;48.266;14.192;2023-12-29T13:27:02;24.50;;;14.20;;
75456;SDS011;64036;48.266;14.192;2023-12-29T13:29:30;26.40;;;15.40;;
75456;SDS011;64036;48.266;14.192;2023-12-29T13:32:02;29.50;;;17.50;;
75456;SDS011;64036;48.266;14.192;2023-12-29T13:40:17;32.80;;;17.10;;
75456;SDS011;64036;48.266;14.192;2023-12-29T13:42:54;27.30;;;15.80;;
75456;SDS011;64036;48.266;14.192;2023-12-29T13:45:23;34.30;;;18.20;;
75456;SDS011;64036;48.266;14.192;2023-12-29T13:47:49;30.90;;;16.90;;
75456;SDS011;64036;48.266;14.192;2023-12-29T13:50:15;34.00;;;18.30;;
75456;SDS011;64036;48.266;14.192;2023-12-29T13:52:41;26.30;;;14.80;;
75456;SDS011;64036;48.266;14.192;2023-12-29T13:55:10;31.00;;;15.10;;
75456;SDS011;64036;48.266;14.192;2023-12-29T13:57:38;30.20;;;17.80;;
75456;SDS011;64036;48.266;14.192;2023-12-29T14:00:20;27.60;;;15.80;;
75456;SDS011;64036;48.266;14.192;2023-12-29T14:05:30;33.50;;;16.80;;
75456;SDS011;64036;48.266;14.192;2023-12-29T14:08:54;28.60;;;15.90;;
75456;SDS011;64036;48.266;14.192;2023-12-29T14:11:13;26.60;;;16.00;;
75456;SDS011;64036;48.266;14.192;2023-12-29T14:13:43;30.30;;;18.00;;
75456;SDS011;64036;48.266;14.192;2023-12-29T14:16:13;32.00;;;17.50;;
75456;SDS011;64036;48.266;14.192;2023-12-29T14:21:30;29.40;;;17.60;;
75456;SDS011;64036;48.266;14.192;2023-12-29T14:24:02;30.00;;;16.10;;
75456;SDS011;64036;48.266;14.192;2023-12-29T14:26:39;32.80;;;16.70;;
75456;SDS011;64036;48.266;14.192;2023-12-29T14:29:08;28.10;;;16.00;;
75456;SDS011;64036;48.266;14.192;2023-12-29T14:31:36;25.00;;;13.90;;
75456;SDS011;64036;48.266;14.192;2023-12-29T14:34:04;22.10;;;13.00;;
75456;SDS011;64036;48.266;14.192;2023-12-29T14:36:31;27.60;;;15.20;;
75456;SDS011;64036;48.266;14.192;2023-12-29T14:38:58;27.10;;;14.80;;
75456;SDS011;64036;48.266;14.192;2023-12-29T14:41:24;28.00;;;16.40;;
75456;SDS011;64036;48.266;14.192;2023-12-29T14:43:50;27.60;;;15.70;;
75456;SDS011;64036;48.266;14.192;2023-12-29T14:46:17;28.30;;;15.00;;
75456;SDS011;64036;48.266;14.192;2023-12-29T14:48:43;25.60;;;15.30;;
75456;SDS011;64036;48.266;14.192;2023-12-29T14:51:09;26.30;;;13.50;;
75456;SDS011;64036;48.266;14.192;2023-12-29T14:53:34;29.40;;;14.50;;
75456;SDS011;64036;48.266;14.192;2023-12-29T14:56:00;27.60;;;14.60;;
75456;SDS011;64036;48.266;14.192;2023-12-29T14:58:26;22.00;;;12.40;;
75456;SDS011;64036;48.266;14.192;2023-12-29T15:00:52;28.00;;;14.30;;
75456;SDS011;64036;48.266;14.192;2023-12-29T15:03:20;22.70;;;12.40;;
75456;SDS011;64036;48.266;14.192;2023-12-29T15:05:46;20.30;;;11.20;;
75456;SDS011;64036;48.266;14.192;2023-12-29T15:08:13;19.30;;;11.50;;